sensor_id;sensor_type;location;lat;lon;timestamp;P1;durP1;ratioP1;P2;durP2;ratioP2
52734;SDS011;38631;47.572;10.704;2023-04-15T00:02:16;3.78;;;1.75;;
52734;SDS011;38631;47.572;10.704;2023-04-15T00:04:45;2.72;;;1.60;;
52734;SDS011;38631;47.572;10.704;2023-04-15T00:07:12;3.05;;;1.75;;
52734;SDS011;38631;47.572;10.704;2023-04-15T00:09:38;4.75;;;1.77;;
52734;SDS011;38631;47.572;10.704;2023-04-15T00:12:04;2.65;;;1.40;;
52734;SDS011;38631;47.572;10.704;2023-04-15T00:14:30;4.25;;;2.08;;
52734;SDS011;38631;47.572;10.704;2023-04-15T00:16:56;3.13;;;1.63;;
52734;SDS011;38631;47.572;10.704;2023-04-15T00:19:21;4.05;;;2.00;;
52734;SDS011;38631;47.572;10.704;2023-04-15T00:21:48;3.58;;;1.60;;
52734;SDS011;38631;47.572;10.704;2023-04-15T00:24:13;3.85;;;2.08;;
52734;SDS011;38631;47.572;10.704;2023-04-15T00:26:39;3.22;;;1.77;;
52734;SDS011;38631;47.572;10.704;2023-04-15T00:29:05;4.55;;;2.28;;
52734;SDS011;38631;47.572;10.704;2023-04-15T00:31:30;8.70;;;2.20;;
52734;SDS011;38631;47.572;10.704;2023-04-15T00:33:56;4.88;;;1.88;;
52734;SDS011;38631;47.572;10.704;2023-04-15T00:36:21;4.93;;;1.85;;
52734;SDS011;38631;47.572;10.704;2023-04-15T00:38:47;5.70;;;1.80;;
52734;SDS011;38631;47.572;10.704;2023-04-15T00:41:13;4.90;;;1.85;;
52734;SDS011;38631;47.572;10.704;2023-04-15T00:43:38;5.68;;;1.77;;
52734;SDS011;38631;47.572;10.704;2023-04-15T00:46:04;3.58;;;1.30;;
52734;SDS011;38631;47.572;10.704;2023-04-15T00:48:31;3.95;;;1.65;;
52734;SDS011;38631;47.572;10.704;2023-04-15T00:50:57;3.22;;;1.42;;
52734;SDS011;38631;47.572;10.704;2023-04-15T00:53:22;2.53;;;1.10;;
52734;SDS011;38631;47.572;10.704;2023-04-15T00:55:48;5.30;;;1.30;;
52734;SDS011;38631;47.572;10.704;2023-04-15T00:58:14;2.65;;;1.25;;
52734;SDS011;38631;47.572;10.704;2023-04-15T01:00:40;5.20;;;1.42;;
52734;SDS011;38631;47.572;10.704;2023-04-15T01:03:06;3.63;;;1.50;;
52734;SDS011;38631;47.572;10.704;2023-04-15T01:05:32;2.75;;;1.48;;
52734;SDS011;38631;47.572;10.704;2023-04-15T01:07:58;4.45;;;1.80;;
52734;SDS011;38631;47.572;10.704;2023-04-15T01:10:24;2.72;;;1.60;;
52734;SDS011;38631;47.572;10.704;2023-04-15T01:12:49;5.45;;;2.05;;
52734;SDS011;38631;47.572;10.704;2023-04-15T01:15:15;4.35;;;2.22;;
52734;SDS011;38631;47.572;10.704;2023-04-15T01:17:40;4.85;;;1.40;;
52734;SDS011;38631;47.572;10.704;2023-04-15T01:20:06;2.88;;;1.38;;
52734;SDS011;38631;47.572;10.704;2023-04-15T01:22:35;2.72;;;1.63;;
52734;SDS011;38631;47.572;10.704;2023-04-15T01:25:03;4.28;;;1.73;;
52734;SDS011;38631;47.572;10.704;2023-04-15T01:27:32;4.30;;;1.92;;
52734;SDS011;38631;47.572;10.704;2023-04-15T01:29:59;3.28;;;1.60;;
52734;SDS011;38631;47.572;10.704;2023-04-15T01:32:24;3.10;;;1.40;;
52734;SDS011;38631;47.572;10.704;2023-04-15T01:34:50;3.72;;;1.80;;
52734;SDS011;38631;47.572;10.704;2023-04-15T01:37:15;5.00;;;1.60;;
52734;SDS011;38631;47.572;10.704;2023-04-15T01:39:40;3.95;;;1.77;;
52734;SDS011;38631;47.572;10.704;2023-04-15T01:42:06;3.67;;;1.40;;
52734;SDS011;38631;47.572;10.704;2023-04-15T01:44:31;5.03;;;1.40;;
52734;SDS011;38631;47.572;10.704;2023-04-15T01:46:57;2.17;;;1.38;;
52734;SDS011;38631;47.572;10.704;2023-04-15T01:49:22;3.50;;;1.45;;
52734;SDS011;38631;47.572;10.704;2023-04-15T01:51:47;4.53;;;1.92;;
52734;SDS011;38631;47.572;10.704;2023-04-15T01:54:13;4.68;;;1.88;;
52734;SDS011;38631;47.572;10.704;2023-04-15T01:56:38;4.30;;;1.70;;
52734;SDS011;38631;47.572;10.704;2023-04-15T01:59:04;3.53;;;1.50;;
52734;SDS011;38631;47.572;10.704;2023-04-15T02:01:30;3.17;;;1.50;;
52734;SDS011;38631;47.572;10.704;2023-04-15T02:03:55;4.75;;;1.40;;
52734;SDS011;38631;47.572;10.704;2023-04-15T02:06:21;4.97;;;1.50;;
52734;SDS011;38631;47.572;10.704;2023-04-15T02:08:46;2.03;;;1.30;;
52734;SDS011;38631;47.572;10.704;2023-04-15T02:11:12;5.43;;;1.60;;
52734;SDS011;38631;47.572;10.704;2023-04-15T02:13:37;2.28;;;1.67;;
52734;SDS011;38631;47.572;10.704;2023-04-15T02:16:02;5.60;;;1.40;;
52734;SDS011;38631;47.572;10.704;2023-04-15T02:18:28;3.13;;;1.40;;
52734;SDS011;38631;47.572;10.704;2023-04-15T02:20:53;4.05;;;1.40;;
52734;SDS011;38631;47.572;10.704;2023-04-15T02:23:21;3.67;;;1.55;;
52734;SDS011;38631;47.572;10.704;2023-04-15T02:25:46;5.47;;;2.17;;
52734;SDS011;38631;47.572;10.704;2023-04-15T02:28:11;2.15;;;1.30;;
52734;SDS011;38631;47.572;10.704;2023-04-15T02:30:37;2.95;;;1.50;;
52734;SDS011;38631;47.572;10.704;2023-04-15T02:33:02;5.28;;;1.63;;
52734;SDS011;38631;47.572;10.704;2023-04-15T02:35:28;2.33;;;1.40;;
52734;SDS011;38631;47.572;10.704;2023-04-15T02:37:53;2.75;;;1.63;;
52734;SDS011;38631;47.572;10.704;2023-04-15T02:40:19;4.50;;;1.60;;
52734;SDS011;38631;47.572;10.704;2023-04-15T02:42:44;2.95;;;1.33;;
52734;SDS011;38631;47.572;10.704;2023-04-15T02:45:10;2.88;;;1.45;;
52734;SDS011;38631;47.572;10.704;2023-04-15T02:47:36;2.63;;;1.20;;
52734;SDS011;38631;47.572;10.704;2023-04-15T02:50:06;3.55;;;1.80;;
52734;SDS011;38631;47.572;10.704;2023-04-15T02:52:33;4.22;;;1.40;;
52734;SDS011;38631;47.572;10.704;2023-04-15T02:54:59;3.70;;;1.42;;
52734;SDS011;38631;47.572;10.704;2023-04-15T02:57:26;3.20;;;1.33;;
52734;SDS011;38631;47.572;10.704;2023-04-15T02:59:55;1.93;;;1.20;;
52734;SDS011;38631;47.572;10.704;2023-04-15T03:02:23;2.63;;;1.40;;
52734;SDS011;38631;47.572;10.704;2023-04-15T03:04:48;1.95;;;1.20;;
52734;SDS011;38631;47.572;10.704;2023-04-15T03:07:14;2.28;;;1.20;;
52734;SDS011;38631;47.572;10.704;2023-04-15T03:09:50;2.58;;;1.20;;
52734;SDS011;38631;47.572;10.704;2023-04-15T03:13:13;3.05;;;1.10;;
52734;SDS011;38631;47.572;10.704;2023-04-15T03:15:38;3.90;;;1.08;;
52734;SDS011;38631;47.572;10.704;2023-04-15T03:18:03;2.75;;;1.20;;
52734;SDS011;38631;47.572;10.704;2023-04-15T03:20:29;3.75;;;1.30;;
52734;SDS011;38631;47.572;10.704;2023-04-15T03:22:54;2.40;;;1.05;;
52734;SDS011;38631;47.572;10.704;2023-04-15T03:25:20;3.08;;;1.33;;
52734;SDS011;38631;47.572;10.704;2023-04-15T03:27:45;5.13;;;0.90;;
52734;SDS011;38631;47.572;10.704;2023-04-15T03:30:11;1.73;;;0.80;;
52734;SDS011;38631;47.572;10.704;2023-04-15T03:32:36;2.08;;;0.95;;
52734;SDS011;38631;47.572;10.704;2023-04-15T03:35:02;3.03;;;1.02;;
52734;SDS011;38631;47.572;10.704;2023-04-15T03:37:28;4.68;;;1.27;;
52734;SDS011;38631;47.572;10.704;2023-04-15T03:39:53;2.10;;;1.00;;
52734;SDS011;38631;47.572;10.704;2023-04-15T03:42:19;2.15;;;1.20;;
52734;SDS011;38631;47.572;10.704;2023-04-15T03:44:44;2.35;;;0.95;;
52734;SDS011;38631;47.572;10.704;2023-04-15T03:47:10;1.92;;;0.98;;
52734;SDS011;38631;47.572;10.704;2023-04-15T03:49:36;2.50;;;1.13;;
52734;SDS011;38631;47.572;10.704;2023-04-15T03:52:01;3.08;;;1.00;;
52734;SDS011;38631;47.572;10.704;2023-04-15T03:54:26;2.35;;;0.95;;
52734;SDS011;38631;47.572;10.704;2023-04-15T03:56:52;3.50;;;0.93;;
52734;SDS011;38631;47.572;10.704;2023-04-15T03:59:17;4.38;;;1.00;;
52734;SDS011;38631;47.572;10.704;2023-04-15T04:01:43;1.73;;;0.85;;
52734;SDS011;38631;47.572;10.704;2023-04-15T04:04:08;2.60;;;0.88;;
52734;SDS011;38631;47.572;10.704;2023-04-15T04:06:33;2.47;;;0.98;;
52734;SDS011;38631;47.572;10.704;2023-04-15T04:08:59;2.53;;;1.05;;
52734;SDS011;38631;47.572;10.704;2023-04-15T04:11:25;3.97;;;0.90;;
52734;SDS011;38631;47.572;10.704;2023-04-15T04:13:52;1.90;;;1.10;;
52734;SDS011;38631;47.572;10.704;2023-04-15T04:16:17;3.33;;;1.85;;
52734;SDS011;38631;47.572;10.704;2023-04-15T04:18:43;3.80;;;1.92;;
52734;SDS011;38631;47.572;10.704;2023-04-15T04:21:08;3.65;;;1.42;;
52734;SDS011;38631;47.572;10.704;2023-04-15T04:23:33;2.42;;;1.48;;
52734;SDS011;38631;47.572;10.704;2023-04-15T04:25:59;1.60;;;1.00;;
52734;SDS011;38631;47.572;10.704;2023-04-15T04:28:25;3.97;;;1.23;;
52734;SDS011;38631;47.572;10.704;2023-04-15T04:30:50;4.53;;;1.63;;
52734;SDS011;38631;47.572;10.704;2023-04-15T04:33:16;5.22;;;1.20;;
52734;SDS011;38631;47.572;10.704;2023-04-15T04:35:41;3.97;;;1.08;;
52734;SDS011;38631;47.572;10.704;2023-04-15T04:38:07;2.75;;;1.30;;
52734;SDS011;38631;47.572;10.704;2023-04-15T04:40:32;4.20;;;1.23;;
52734;SDS011;38631;47.572;10.704;2023-04-15T04:42:58;2.80;;;1.23;;
52734;SDS011;38631;47.572;10.704;2023-04-15T04:45:23;2.50;;;1.20;;
52734;SDS011;38631;47.572;10.704;2023-04-15T04:47:49;4.00;;;1.17;;
52734;SDS011;38631;47.572;10.704;2023-04-15T04:50:14;2.20;;;1.25;;
52734;SDS011;38631;47.572;10.704;2023-04-15T04:52:40;7.15;;;1.52;;
52734;SDS011;38631;47.572;10.704;2023-04-15T04:55:05;8.15;;;2.58;;
52734;SDS011;38631;47.572;10.704;2023-04-15T04:57:32;7.10;;;2.75;;
52734;SDS011;38631;47.572;10.704;2023-04-15T04:59:59;5.85;;;3.13;;
52734;SDS011;38631;47.572;10.704;2023-04-15T05:02:25;7.15;;;3.10;;
52734;SDS011;38631;47.572;10.704;2023-04-15T05:04:51;6.90;;;3.30;;
52734;SDS011;38631;47.572;10.704;2023-04-15T05:07:18;10.23;;;3.38;;
52734;SDS011;38631;47.572;10.704;2023-04-15T05:09:45;4.47;;;2.50;;
52734;SDS011;38631;47.572;10.704;2023-04-15T05:12:10;4.78;;;2.10;;
52734;SDS011;38631;47.572;10.704;2023-04-15T05:14:39;4.13;;;1.70;;
52734;SDS011;38631;47.572;10.704;2023-04-15T05:17:07;3.35;;;1.60;;
52734;SDS011;38631;47.572;10.704;2023-04-15T05:19:32;2.22;;;1.50;;
52734;SDS011;38631;47.572;10.704;2023-04-15T05:21:58;3.80;;;1.85;;
52734;SDS011;38631;47.572;10.704;2023-04-15T05:24:24;4.45;;;1.80;;
52734;SDS011;38631;47.572;10.704;2023-04-15T05:26:50;3.80;;;1.90;;
52734;SDS011;38631;47.572;10.704;2023-04-15T05:29:15;6.25;;;3.10;;
52734;SDS011;38631;47.572;10.704;2023-04-15T05:31:41;5.28;;;2.67;;
52734;SDS011;38631;47.572;10.704;2023-04-15T05:34:07;3.45;;;2.25;;
52734;SDS011;38631;47.572;10.704;2023-04-15T05:36:32;4.82;;;2.25;;
52734;SDS011;38631;47.572;10.704;2023-04-15T05:38:58;6.45;;;2.25;;
52734;SDS011;38631;47.572;10.704;2023-04-15T05:41:23;5.70;;;2.20;;
52734;SDS011;38631;47.572;10.704;2023-04-15T05:43:48;3.97;;;2.08;;
52734;SDS011;38631;47.572;10.704;2023-04-15T05:46:14;4.32;;;1.90;;
52734;SDS011;38631;47.572;10.704;2023-04-15T05:48:39;6.20;;;2.03;;
52734;SDS011;38631;47.572;10.704;2023-04-15T05:51:05;5.75;;;3.00;;
52734;SDS011;38631;47.572;10.704;2023-04-15T05:53:31;6.00;;;3.22;;
52734;SDS011;38631;47.572;10.704;2023-04-15T05:55:56;6.40;;;3.55;;
52734;SDS011;38631;47.572;10.704;2023-04-15T05:58:21;4.72;;;2.67;;
52734;SDS011;38631;47.572;10.704;2023-04-15T06:00:47;5.70;;;2.88;;
52734;SDS011;38631;47.572;10.704;2023-04-15T06:03:12;10.45;;;3.58;;
52734;SDS011;38631;47.572;10.704;2023-04-15T06:05:38;4.47;;;2.42;;
52734;SDS011;38631;47.572;10.704;2023-04-15T06:08:04;11.27;;;4.25;;
52734;SDS011;38631;47.572;10.704;2023-04-15T06:10:30;22.65;;;11.07;;
52734;SDS011;38631;47.572;10.704;2023-04-15T06:15:25;8.73;;;4.90;;
52734;SDS011;38631;47.572;10.704;2023-04-15T06:17:51;13.60;;;6.15;;
52734;SDS011;38631;47.572;10.704;2023-04-15T06:20:16;15.10;;;9.07;;
52734;SDS011;38631;47.572;10.704;2023-04-15T06:22:41;14.07;;;7.72;;
52734;SDS011;38631;47.572;10.704;2023-04-15T06:25:07;12.68;;;7.22;;
52734;SDS011;38631;47.572;10.704;2023-04-15T06:27:33;10.10;;;5.82;;
52734;SDS011;38631;47.572;10.704;2023-04-15T06:29:58;8.65;;;5.40;;
52734;SDS011;38631;47.572;10.704;2023-04-15T06:32:24;7.22;;;4.13;;
52734;SDS011;38631;47.572;10.704;2023-04-15T06:34:49;4.95;;;2.83;;
52734;SDS011;38631;47.572;10.704;2023-04-15T06:37:15;5.88;;;2.95;;
52734;SDS011;38631;47.572;10.704;2023-04-15T06:39:40;5.20;;;3.25;;
52734;SDS011;38631;47.572;10.704;2023-04-15T06:42:07;8.60;;;4.57;;
52734;SDS011;38631;47.572;10.704;2023-04-15T06:44:33;14.55;;;7.45;;
52734;SDS011;38631;47.572;10.704;2023-04-15T06:46:58;14.43;;;7.40;;
52734;SDS011;38631;47.572;10.704;2023-04-15T06:49:23;8.40;;;4.72;;
52734;SDS011;38631;47.572;10.704;2023-04-15T06:51:49;8.85;;;4.45;;
52734;SDS011;38631;47.572;10.704;2023-04-15T06:54:15;9.45;;;3.65;;
52734;SDS011;38631;47.572;10.704;2023-04-15T06:56:41;17.98;;;8.73;;
52734;SDS011;38631;47.572;10.704;2023-04-15T06:59:07;30.10;;;12.73;;
52734;SDS011;38631;47.572;10.704;2023-04-15T07:01:32;20.15;;;10.07;;
52734;SDS011;38631;47.572;10.704;2023-04-15T07:03:58;17.02;;;8.27;;
52734;SDS011;38631;47.572;10.704;2023-04-15T07:06:23;8.13;;;2.78;;
52734;SDS011;38631;47.572;10.704;2023-04-15T07:08:49;4.35;;;1.90;;
52734;SDS011;38631;47.572;10.704;2023-04-15T07:11:15;6.47;;;2.03;;
52734;SDS011;38631;47.572;10.704;2023-04-15T07:13:41;7.53;;;3.20;;
52734;SDS011;38631;47.572;10.704;2023-04-15T07:16:06;6.18;;;2.20;;
52734;SDS011;38631;47.572;10.704;2023-04-15T07:18:32;4.05;;;2.40;;
52734;SDS011;38631;47.572;10.704;2023-04-15T07:20:58;6.72;;;2.72;;
52734;SDS011;38631;47.572;10.704;2023-04-15T07:23:24;5.85;;;1.60;;
52734;SDS011;38631;47.572;10.704;2023-04-15T07:25:50;4.32;;;1.10;;
52734;SDS011;38631;47.572;10.704;2023-04-15T07:28:16;2.38;;;1.23;;
52734;SDS011;38631;47.572;10.704;2023-04-15T07:30:41;5.07;;;1.15;;
52734;SDS011;38631;47.572;10.704;2023-04-15T07:33:07;3.28;;;0.80;;
52734;SDS011;38631;47.572;10.704;2023-04-15T07:35:32;4.32;;;1.23;;
52734;SDS011;38631;47.572;10.704;2023-04-15T07:37:57;5.43;;;1.27;;
52734;SDS011;38631;47.572;10.704;2023-04-15T07:40:23;2.78;;;1.10;;
52734;SDS011;38631;47.572;10.704;2023-04-15T07:42:48;4.50;;;1.50;;
52734;SDS011;38631;47.572;10.704;2023-04-15T07:45:14;3.15;;;1.02;;
52734;SDS011;38631;47.572;10.704;2023-04-15T07:47:40;2.15;;;0.60;;
52734;SDS011;38631;47.572;10.704;2023-04-15T07:50:06;2.50;;;1.33;;
52734;SDS011;38631;47.572;10.704;2023-04-15T07:52:33;5.25;;;1.20;;
52734;SDS011;38631;47.572;10.704;2023-04-15T07:55:03;3.05;;;1.00;;
52734;SDS011;38631;47.572;10.704;2023-04-15T07:57:33;5.13;;;1.23;;
52734;SDS011;38631;47.572;10.704;2023-04-15T07:59:59;2.55;;;1.52;;
52734;SDS011;38631;47.572;10.704;2023-04-15T08:02:24;5.32;;;1.63;;
52734;SDS011;38631;47.572;10.704;2023-04-15T08:04:50;6.25;;;2.20;;
52734;SDS011;38631;47.572;10.704;2023-04-15T08:07:17;8.18;;;4.25;;
52734;SDS011;38631;47.572;10.704;2023-04-15T08:09:42;5.20;;;2.13;;
52734;SDS011;38631;47.572;10.704;2023-04-15T08:12:08;3.95;;;1.42;;
52734;SDS011;38631;47.572;10.704;2023-04-15T08:14:36;5.00;;;1.50;;
52734;SDS011;38631;47.572;10.704;2023-04-15T08:17:02;5.72;;;1.10;;
52734;SDS011;38631;47.572;10.704;2023-04-15T08:19:29;1.67;;;0.85;;
52734;SDS011;38631;47.572;10.704;2023-04-15T08:21:54;4.70;;;1.20;;
52734;SDS011;38631;47.572;10.704;2023-04-15T08:24:21;4.57;;;1.33;;
52734;SDS011;38631;47.572;10.704;2023-04-15T08:26:46;4.00;;;1.63;;
52734;SDS011;38631;47.572;10.704;2023-04-15T08:29:11;5.70;;;1.08;;
52734;SDS011;38631;47.572;10.704;2023-04-15T08:31:37;4.38;;;1.23;;
52734;SDS011;38631;47.572;10.704;2023-04-15T08:34:02;3.55;;;1.02;;
52734;SDS011;38631;47.572;10.704;2023-04-15T08:36:28;3.25;;;0.90;;
52734;SDS011;38631;47.572;10.704;2023-04-15T08:38:53;3.75;;;0.98;;
52734;SDS011;38631;47.572;10.704;2023-04-15T08:41:20;5.13;;;1.23;;
52734;SDS011;38631;47.572;10.704;2023-04-15T08:43:55;3.78;;;0.98;;
52734;SDS011;38631;47.572;10.704;2023-04-15T08:46:22;2.67;;;1.10;;
52734;SDS011;38631;47.572;10.704;2023-04-15T08:48:48;6.70;;;1.33;;
52734;SDS011;38631;47.572;10.704;2023-04-15T08:51:15;5.03;;;0.98;;
52734;SDS011;38631;47.572;10.704;2023-04-15T08:53:42;3.55;;;1.23;;
52734;SDS011;38631;47.572;10.704;2023-04-15T08:56:08;4.45;;;1.42;;
52734;SDS011;38631;47.572;10.704;2023-04-15T08:58:36;5.18;;;1.13;;
52734;SDS011;38631;47.572;10.704;2023-04-15T09:01:02;3.22;;;1.10;;
52734;SDS011;38631;47.572;10.704;2023-04-15T09:03:27;4.22;;;1.40;;
52734;SDS011;38631;47.572;10.704;2023-04-15T09:05:56;3.70;;;1.30;;
52734;SDS011;38631;47.572;10.704;2023-04-15T09:08:21;4.05;;;1.73;;
52734;SDS011;38631;47.572;10.704;2023-04-15T09:10:48;5.53;;;1.40;;
52734;SDS011;38631;47.572;10.704;2023-04-15T09:13:13;5.70;;;1.02;;
52734;SDS011;38631;47.572;10.704;2023-04-15T09:15:39;6.55;;;1.52;;
52734;SDS011;38631;47.572;10.704;2023-04-15T09:18:05;4.22;;;1.30;;
52734;SDS011;38631;47.572;10.704;2023-04-15T09:20:41;3.78;;;1.02;;
52734;SDS011;38631;47.572;10.704;2023-04-15T09:23:13;4.25;;;1.75;;
52734;SDS011;38631;47.572;10.704;2023-04-15T09:25:39;4.03;;;1.20;;
52734;SDS011;38631;47.572;10.704;2023-04-15T09:30:35;7.95;;;1.10;;
52734;SDS011;38631;47.572;10.704;2023-04-15T09:33:01;3.22;;;1.25;;
52734;SDS011;38631;47.572;10.704;2023-04-15T09:35:31;2.22;;;1.02;;
52734;SDS011;38631;47.572;10.704;2023-04-15T09:38:02;3.75;;;1.65;;
52734;SDS011;38631;47.572;10.704;2023-04-15T09:40:32;2.78;;;1.15;;
52734;SDS011;38631;47.572;10.704;2023-04-15T09:42:58;4.22;;;1.00;;
52734;SDS011;38631;47.572;10.704;2023-04-15T09:45:23;3.78;;;1.27;;
52734;SDS011;38631;47.572;10.704;2023-04-15T09:47:49;5.40;;;1.20;;
52734;SDS011;38631;47.572;10.704;2023-04-15T09:50:18;2.83;;;0.85;;
52734;SDS011;38631;47.572;10.704;2023-04-15T09:52:44;3.33;;;0.95;;
52734;SDS011;38631;47.572;10.704;2023-04-15T09:55:10;3.47;;;1.23;;
52734;SDS011;38631;47.572;10.704;2023-04-15T09:57:37;5.47;;;1.10;;
52734;SDS011;38631;47.572;10.704;2023-04-15T10:00:03;3.90;;;1.25;;
52734;SDS011;38631;47.572;10.704;2023-04-15T10:02:32;3.67;;;1.02;;
52734;SDS011;38631;47.572;10.704;2023-04-15T10:04:58;2.30;;;0.80;;
52734;SDS011;38631;47.572;10.704;2023-04-15T10:07:25;3.42;;;0.80;;
52734;SDS011;38631;47.572;10.704;2023-04-15T10:09:51;3.83;;;1.05;;
52734;SDS011;38631;47.572;10.704;2023-04-15T10:12:17;3.30;;;0.70;;
52734;SDS011;38631;47.572;10.704;2023-04-15T10:14:43;4.60;;;1.13;;
52734;SDS011;38631;47.572;10.704;2023-04-15T10:17:10;4.90;;;1.77;;
52734;SDS011;38631;47.572;10.704;2023-04-15T10:19:39;2.25;;;0.77;;
52734;SDS011;38631;47.572;10.704;2023-04-15T10:22:05;3.88;;;0.85;;
52734;SDS011;38631;47.572;10.704;2023-04-15T10:24:31;3.17;;;0.88;;
52734;SDS011;38631;47.572;10.704;2023-04-15T10:26:57;2.30;;;0.80;;
52734;SDS011;38631;47.572;10.704;2023-04-15T10:29:24;3.35;;;0.80;;
52734;SDS011;38631;47.572;10.704;2023-04-15T10:31:55;2.43;;;0.90;;
52734;SDS011;38631;47.572;10.704;2023-04-15T10:34:23;5.68;;;1.52;;
52734;SDS011;38631;47.572;10.704;2023-04-15T10:36:49;4.63;;;1.45;;
52734;SDS011;38631;47.572;10.704;2023-04-15T10:42:07;8.55;;;3.35;;
52734;SDS011;38631;47.572;10.704;2023-04-15T10:44:49;2.35;;;0.90;;
52734;SDS011;38631;47.572;10.704;2023-04-15T10:47:17;2.55;;;0.98;;
52734;SDS011;38631;47.572;10.704;2023-04-15T10:49:44;6.40;;;1.25;;
52734;SDS011;38631;47.572;10.704;2023-04-15T10:52:12;2.53;;;0.70;;
52734;SDS011;38631;47.572;10.704;2023-04-15T10:54:39;3.53;;;1.00;;
52734;SDS011;38631;47.572;10.704;2023-04-15T10:59:37;5.82;;;1.60;;
52734;SDS011;38631;47.572;10.704;2023-04-15T11:05:09;2.72;;;0.75;;
52734;SDS011;38631;47.572;10.704;2023-04-15T11:07:36;2.15;;;0.77;;
52734;SDS011;38631;47.572;10.704;2023-04-15T11:12:42;1.67;;;0.70;;
52734;SDS011;38631;47.572;10.704;2023-04-15T11:15:27;3.08;;;0.85;;
52734;SDS011;38631;47.572;10.704;2023-04-15T11:17:58;5.90;;;1.10;;
52734;SDS011;38631;47.572;10.704;2023-04-15T11:20:34;2.83;;;0.90;;
52734;SDS011;38631;47.572;10.704;2023-04-15T11:23:01;3.05;;;0.80;;
52734;SDS011;38631;47.572;10.704;2023-04-15T11:25:31;4.57;;;1.08;;
52734;SDS011;38631;47.572;10.704;2023-04-15T11:27:57;3.65;;;0.88;;
52734;SDS011;38631;47.572;10.704;2023-04-15T11:30:25;3.33;;;0.98;;
52734;SDS011;38631;47.572;10.704;2023-04-15T11:32:52;3.65;;;1.02;;
52734;SDS011;38631;47.572;10.704;2023-04-15T11:35:19;4.03;;;1.33;;
52734;SDS011;38631;47.572;10.704;2023-04-15T11:37:47;3.47;;;1.08;;
52734;SDS011;38631;47.572;10.704;2023-04-15T11:40:14;4.75;;;1.20;;
52734;SDS011;38631;47.572;10.704;2023-04-15T11:42:41;2.05;;;0.70;;
52734;SDS011;38631;47.572;10.704;2023-04-15T11:45:08;3.97;;;1.10;;
52734;SDS011;38631;47.572;10.704;2023-04-15T11:47:35;3.42;;;0.98;;
52734;SDS011;38631;47.572;10.704;2023-04-15T11:50:14;4.45;;;1.00;;
52734;SDS011;38631;47.572;10.704;2023-04-15T11:52:40;3.60;;;0.60;;
52734;SDS011;38631;47.572;10.704;2023-04-15T11:55:18;5.05;;;0.90;;
52734;SDS011;38631;47.572;10.704;2023-04-15T11:57:43;2.90;;;0.90;;
52734;SDS011;38631;47.572;10.704;2023-04-15T12:00:09;3.08;;;0.80;;
52734;SDS011;38631;47.572;10.704;2023-04-15T12:02:37;3.60;;;0.82;;
52734;SDS011;38631;47.572;10.704;2023-04-15T12:05:06;3.58;;;0.80;;
52734;SDS011;38631;47.572;10.704;2023-04-15T12:07:32;3.70;;;1.00;;
52734;SDS011;38631;47.572;10.704;2023-04-15T12:09:58;3.85;;;1.00;;
52734;SDS011;38631;47.572;10.704;2023-04-15T12:12:27;3.28;;;0.80;;
52734;SDS011;38631;47.572;10.704;2023-04-15T12:14:55;2.20;;;0.77;;
52734;SDS011;38631;47.572;10.704;2023-04-15T12:17:21;8.32;;;1.20;;
52734;SDS011;38631;47.572;10.704;2023-04-15T12:19:47;1.58;;;0.88;;
52734;SDS011;38631;47.572;10.704;2023-04-15T12:22:15;6.93;;;1.45;;
52734;SDS011;38631;47.572;10.704;2023-04-15T12:24:41;6.68;;;1.55;;
52734;SDS011;38631;47.572;10.704;2023-04-15T12:27:12;2.65;;;0.93;;
52734;SDS011;38631;47.572;10.704;2023-04-15T12:29:40;3.30;;;0.90;;
52734;SDS011;38631;47.572;10.704;2023-04-15T12:34:34;2.67;;;0.80;;
52734;SDS011;38631;47.572;10.704;2023-04-15T12:37:14;4.60;;;0.98;;
52734;SDS011;38631;47.572;10.704;2023-04-15T12:39:41;6.35;;;1.42;;
52734;SDS011;38631;47.572;10.704;2023-04-15T12:42:08;1.42;;;0.60;;
52734;SDS011;38631;47.572;10.704;2023-04-15T12:44:35;3.00;;;0.93;;
52734;SDS011;38631;47.572;10.704;2023-04-15T12:47:01;3.95;;;1.10;;
52734;SDS011;38631;47.572;10.704;2023-04-15T12:49:27;5.20;;;1.20;;
52734;SDS011;38631;47.572;10.704;2023-04-15T12:51:53;3.13;;;0.70;;
52734;SDS011;38631;47.572;10.704;2023-04-15T12:54:21;4.45;;;0.80;;
52734;SDS011;38631;47.572;10.704;2023-04-15T12:56:47;3.40;;;0.90;;
52734;SDS011;38631;47.572;10.704;2023-04-15T12:59:14;2.55;;;0.80;;
52734;SDS011;38631;47.572;10.704;2023-04-15T13:01:42;2.92;;;0.73;;
52734;SDS011;38631;47.572;10.704;2023-04-15T13:04:08;2.58;;;0.90;;
52734;SDS011;38631;47.572;10.704;2023-04-15T13:06:33;2.70;;;0.95;;
52734;SDS011;38631;47.572;10.704;2023-04-15T13:08:59;4.30;;;0.82;;
52734;SDS011;38631;47.572;10.704;2023-04-15T13:11:25;3.28;;;0.73;;
52734;SDS011;38631;47.572;10.704;2023-04-15T13:13:51;1.67;;;0.80;;
52734;SDS011;38631;47.572;10.704;2023-04-15T13:16:17;2.15;;;0.82;;
52734;SDS011;38631;47.572;10.704;2023-04-15T13:18:43;3.75;;;0.85;;
52734;SDS011;38631;47.572;10.704;2023-04-15T13:21:10;1.92;;;0.68;;
52734;SDS011;38631;47.572;10.704;2023-04-15T13:23:36;4.88;;;0.80;;
52734;SDS011;38631;47.572;10.704;2023-04-15T13:26:02;4.57;;;0.80;;
52734;SDS011;38631;47.572;10.704;2023-04-15T13:28:28;4.05;;;1.02;;
52734;SDS011;38631;47.572;10.704;2023-04-15T13:30:53;3.22;;;0.93;;
52734;SDS011;38631;47.572;10.704;2023-04-15T13:33:18;1.73;;;0.40;;
52734;SDS011;38631;47.572;10.704;2023-04-15T13:35:44;4.82;;;0.93;;
52734;SDS011;38631;47.572;10.704;2023-04-15T13:38:09;1.95;;;0.80;;
52734;SDS011;38631;47.572;10.704;2023-04-15T13:40:35;2.50;;;0.60;;
52734;SDS011;38631;47.572;10.704;2023-04-15T13:43:00;3.38;;;1.30;;
52734;SDS011;38631;47.572;10.704;2023-04-15T13:45:26;7.53;;;2.38;;
52734;SDS011;38631;47.572;10.704;2023-04-15T13:47:51;4.03;;;3.13;;
52734;SDS011;38631;47.572;10.704;2023-04-15T13:50:17;6.20;;;3.33;;
52734;SDS011;38631;47.572;10.704;2023-04-15T13:52:42;7.22;;;3.50;;
52734;SDS011;38631;47.572;10.704;2023-04-15T13:55:08;5.45;;;3.25;;
52734;SDS011;38631;47.572;10.704;2023-04-15T13:57:34;6.28;;;3.25;;
52734;SDS011;38631;47.572;10.704;2023-04-15T13:59:59;5.75;;;3.05;;
52734;SDS011;38631;47.572;10.704;2023-04-15T14:02:25;5.85;;;3.35;;
52734;SDS011;38631;47.572;10.704;2023-04-15T14:04:50;9.05;;;3.45;;
52734;SDS011;38631;47.572;10.704;2023-04-15T14:07:15;7.20;;;3.78;;
52734;SDS011;38631;47.572;10.704;2023-04-15T14:09:42;5.72;;;3.40;;
52734;SDS011;38631;47.572;10.704;2023-04-15T14:12:08;4.88;;;3.33;;
52734;SDS011;38631;47.572;10.704;2023-04-15T14:14:34;7.32;;;3.65;;
52734;SDS011;38631;47.572;10.704;2023-04-15T14:16:59;9.05;;;3.75;;
52734;SDS011;38631;47.572;10.704;2023-04-15T14:19:24;8.75;;;4.03;;
52734;SDS011;38631;47.572;10.704;2023-04-15T14:21:50;9.50;;;5.15;;
52734;SDS011;38631;47.572;10.704;2023-04-15T14:24:15;6.07;;;3.70;;
52734;SDS011;38631;47.572;10.704;2023-04-15T14:26:42;7.90;;;3.70;;
52734;SDS011;38631;47.572;10.704;2023-04-15T14:29:08;6.93;;;3.80;;
52734;SDS011;38631;47.572;10.704;2023-04-15T14:31:34;5.63;;;3.97;;
52734;SDS011;38631;47.572;10.704;2023-04-15T14:33:59;5.00;;;3.40;;
52734;SDS011;38631;47.572;10.704;2023-04-15T14:36:25;6.15;;;3.75;;
52734;SDS011;38631;47.572;10.704;2023-04-15T14:38:51;6.20;;;2.88;;
52734;SDS011;38631;47.572;10.704;2023-04-15T14:41:16;5.47;;;2.92;;
52734;SDS011;38631;47.572;10.704;2023-04-15T14:43:42;6.18;;;3.53;;
52734;SDS011;38631;47.572;10.704;2023-04-15T14:46:07;5.95;;;3.38;;
52734;SDS011;38631;47.572;10.704;2023-04-15T14:48:34;4.70;;;3.25;;